sensor_id;sensor_type;location;lat;lon;timestamp;P1;durP1;ratioP1;P2;durP2;ratioP2
6378;SDS011;3222;48.858;10.128;2023-06-01T00:02:25;6.20;;;3.00;;
6378;SDS011;3222;48.858;10.128;2023-06-01T00:04:51;4.63;;;2.73;;
6378;SDS011;3222;48.858;10.128;2023-06-01T00:07:17;7.70;;;2.90;;
6378;SDS011;3222;48.858;10.128;2023-06-01T00:09:42;5.13;;;3.17;;
6378;SDS011;3222;48.858;10.128;2023-06-01T00:12:08;3.97;;;2.73;;
6378;SDS011;3222;48.858;10.128;2023-06-01T00:14:34;3.40;;;2.77;;
6378;SDS011;3222;48.858;10.128;2023-06-01T00:17:00;3.43;;;2.90;;
6378;SDS011;3222;48.858;10.128;2023-06-01T00:19:28;4.30;;;2.87;;
6378;SDS011;3222;48.858;10.128;2023-06-01T00:21:54;5.90;;;2.63;;
6378;SDS011;3222;48.858;10.128;2023-06-01T00:24:21;4.10;;;2.53;;
6378;SDS011;3222;48.858;10.128;2023-06-01T00:26:47;4.67;;;2.70;;
6378;SDS011;3222;48.858;10.128;2023-06-01T00:29:13;4.70;;;2.40;;
6378;SDS011;3222;48.858;10.128;2023-06-01T00:31:38;6.50;;;2.57;;
6378;SDS011;3222;48.858;10.128;2023-06-01T00:34:04;3.97;;;2.80;;
6378;SDS011;3222;48.858;10.128;2023-06-01T00:36:30;3.37;;;2.83;;
6378;SDS011;3222;48.858;10.128;2023-06-01T00:38:56;3.73;;;3.00;;
6378;SDS011;3222;48.858;10.128;2023-06-01T00:41:27;3.93;;;2.57;;
6378;SDS011;3222;48.858;10.128;2023-06-01T00:43:53;4.30;;;2.87;;
6378;SDS011;3222;48.858;10.128;2023-06-01T00:46:19;4.43;;;2.70;;
6378;SDS011;3222;48.858;10.128;2023-06-01T00:48:45;3.77;;;2.93;;
6378;SDS011;3222;48.858;10.128;2023-06-01T00:51:11;4.60;;;3.10;;
6378;SDS011;3222;48.858;10.128;2023-06-01T00:53:37;6.13;;;2.70;;
6378;SDS011;3222;48.858;10.128;2023-06-01T00:56:03;4.67;;;3.20;;
6378;SDS011;3222;48.858;10.128;2023-06-01T00:58:29;3.43;;;2.70;;
6378;SDS011;3222;48.858;10.128;2023-06-01T01:00:55;3.10;;;2.53;;
6378;SDS011;3222;48.858;10.128;2023-06-01T01:03:21;7.57;;;3.10;;
6378;SDS011;3222;48.858;10.128;2023-06-01T01:05:51;3.23;;;2.90;;
6378;SDS011;3222;48.858;10.128;2023-06-01T01:11:06;4.13;;;2.77;;
6378;SDS011;3222;48.858;10.128;2023-06-01T01:16:32;5.87;;;3.03;;
6378;SDS011;3222;48.858;10.128;2023-06-01T01:21:55;4.07;;;3.07;;
6378;SDS011;3222;48.858;10.128;2023-06-01T01:30:31;4.77;;;3.00;;
6378;SDS011;3222;48.858;10.128;2023-06-01T01:32:58;5.47;;;3.00;;
6378;SDS011;3222;48.858;10.128;2023-06-01T01:35:25;4.00;;;2.87;;
6378;SDS011;3222;48.858;10.128;2023-06-01T01:37:52;4.13;;;2.93;;
6378;SDS011;3222;48.858;10.128;2023-06-01T01:40:19;4.93;;;3.27;;
6378;SDS011;3222;48.858;10.128;2023-06-01T01:42:46;3.30;;;2.80;;
6378;SDS011;3222;48.858;10.128;2023-06-01T01:45:13;5.07;;;3.33;;
6378;SDS011;3222;48.858;10.128;2023-06-01T01:47:41;5.30;;;3.17;;
6378;SDS011;3222;48.858;10.128;2023-06-01T01:50:14;4.53;;;3.20;;
6378;SDS011;3222;48.858;10.128;2023-06-01T01:52:43;4.37;;;2.93;;
6378;SDS011;3222;48.858;10.128;2023-06-01T01:55:10;3.60;;;3.30;;
6378;SDS011;3222;48.858;10.128;2023-06-01T01:57:38;6.47;;;3.20;;
6378;SDS011;3222;48.858;10.128;2023-06-01T02:00:06;3.23;;;2.80;;
6378;SDS011;3222;48.858;10.128;2023-06-01T02:02:38;3.73;;;3.10;;
6378;SDS011;3222;48.858;10.128;2023-06-01T02:05:05;4.27;;;3.30;;
6378;SDS011;3222;48.858;10.128;2023-06-01T02:07:31;4.37;;;3.40;;
6378;SDS011;3222;48.858;10.128;2023-06-01T02:09:59;5.03;;;3.73;;
6378;SDS011;3222;48.858;10.128;2023-06-01T02:12:25;3.97;;;3.40;;
6378;SDS011;3222;48.858;10.128;2023-06-01T02:14:51;5.13;;;3.00;;
6378;SDS011;3222;48.858;10.128;2023-06-01T02:17:16;4.93;;;3.50;;
6378;SDS011;3222;48.858;10.128;2023-06-01T02:19:43;4.43;;;3.10;;
6378;SDS011;3222;48.858;10.128;2023-06-01T02:22:09;4.90;;;3.43;;
6378;SDS011;3222;48.858;10.128;2023-06-01T02:24:35;5.37;;;3.40;;
6378;SDS011;3222;48.858;10.128;2023-06-01T02:27:00;4.63;;;3.23;;
6378;SDS011;3222;48.858;10.128;2023-06-01T02:29:27;5.17;;;3.30;;
6378;SDS011;3222;48.858;10.128;2023-06-01T02:31:53;5.10;;;3.10;;
6378;SDS011;3222;48.858;10.128;2023-06-01T02:34:19;5.57;;;3.13;;
6378;SDS011;3222;48.858;10.128;2023-06-01T02:36:45;7.23;;;3.13;;
6378;SDS011;3222;48.858;10.128;2023-06-01T02:39:13;5.17;;;3.50;;
6378;SDS011;3222;48.858;10.128;2023-06-01T02:41:40;5.47;;;3.30;;
6378;SDS011;3222;48.858;10.128;2023-06-01T02:44:06;5.77;;;3.33;;
6378;SDS011;3222;48.858;10.128;2023-06-01T02:46:31;8.03;;;3.30;;
6378;SDS011;3222;48.858;10.128;2023-06-01T02:48:57;6.03;;;3.37;;
6378;SDS011;3222;48.858;10.128;2023-06-01T02:51:23;5.67;;;3.20;;
6378;SDS011;3222;48.858;10.128;2023-06-01T02:53:56;5.27;;;3.33;;
6378;SDS011;3222;48.858;10.128;2023-06-01T02:56:22;6.47;;;3.90;;
6378;SDS011;3222;48.858;10.128;2023-06-01T02:59:01;4.67;;;3.13;;
6378;SDS011;3222;48.858;10.128;2023-06-01T03:01:31;3.57;;;3.20;;
6378;SDS011;3222;48.858;10.128;2023-06-01T03:04:02;4.20;;;3.40;;
6378;SDS011;3222;48.858;10.128;2023-06-01T03:06:30;3.83;;;3.20;;
6378;SDS011;3222;48.858;10.128;2023-06-01T03:09:05;4.20;;;3.20;;
6378;SDS011;3222;48.858;10.128;2023-06-01T03:11:54;4.83;;;2.93;;
6378;SDS011;3222;48.858;10.128;2023-06-01T03:14:20;5.27;;;3.30;;
6378;SDS011;3222;48.858;10.128;2023-06-01T03:16:46;5.77;;;3.30;;
6378;SDS011;3222;48.858;10.128;2023-06-01T03:19:17;4.00;;;3.23;;
6378;SDS011;3222;48.858;10.128;2023-06-01T03:21:45;6.27;;;3.40;;
6378;SDS011;3222;48.858;10.128;2023-06-01T03:24:14;4.73;;;3.63;;
6378;SDS011;3222;48.858;10.128;2023-06-01T03:26:40;5.60;;;3.10;;
6378;SDS011;3222;48.858;10.128;2023-06-01T03:29:06;6.23;;;3.40;;
6378;SDS011;3222;48.858;10.128;2023-06-01T03:31:33;3.83;;;3.30;;
6378;SDS011;3222;48.858;10.128;2023-06-01T03:34:02;4.40;;;3.53;;
6378;SDS011;3222;48.858;10.128;2023-06-01T03:36:27;5.13;;;3.73;;
6378;SDS011;3222;48.858;10.128;2023-06-01T03:38:54;5.37;;;3.70;;
6378;SDS011;3222;48.858;10.128;2023-06-01T03:41:21;5.10;;;3.57;;
6378;SDS011;3222;48.858;10.128;2023-06-01T03:43:48;6.63;;;3.67;;
6378;SDS011;3222;48.858;10.128;2023-06-01T03:46:15;5.07;;;3.53;;
6378;SDS011;3222;48.858;10.128;2023-06-01T03:48:41;4.50;;;3.47;;
6378;SDS011;3222;48.858;10.128;2023-06-01T03:51:07;6.90;;;4.07;;
6378;SDS011;3222;48.858;10.128;2023-06-01T03:53:33;5.17;;;3.30;;
6378;SDS011;3222;48.858;10.128;2023-06-01T03:55:59;6.43;;;3.73;;
6378;SDS011;3222;48.858;10.128;2023-06-01T03:58:29;5.03;;;3.73;;
6378;SDS011;3222;48.858;10.128;2023-06-01T04:00:55;5.67;;;4.03;;
6378;SDS011;3222;48.858;10.128;2023-06-01T04:03:22;6.13;;;4.10;;
6378;SDS011;3222;48.858;10.128;2023-06-01T04:05:49;4.67;;;3.77;;
6378;SDS011;3222;48.858;10.128;2023-06-01T04:08:15;5.83;;;4.13;;
6378;SDS011;3222;48.858;10.128;2023-06-01T04:10:41;7.70;;;4.20;;
6378;SDS011;3222;48.858;10.128;2023-06-01T04:13:09;7.10;;;4.30;;
6378;SDS011;3222;48.858;10.128;2023-06-01T04:15:35;5.13;;;3.67;;
6378;SDS011;3222;48.858;10.128;2023-06-01T04:18:01;5.63;;;3.70;;
6378;SDS011;3222;48.858;10.128;2023-06-01T04:20:39;5.43;;;3.70;;
6378;SDS011;3222;48.858;10.128;2023-06-01T04:23:05;4.70;;;3.60;;
6378;SDS011;3222;48.858;10.128;2023-06-01T04:25:31;15.17;;;4.40;;
6378;SDS011;3222;48.858;10.128;2023-06-01T04:27:57;6.60;;;3.60;;
6378;SDS011;3222;48.858;10.128;2023-06-01T04:30:27;6.07;;;4.00;;
6378;SDS011;3222;48.858;10.128;2023-06-01T04:32:53;6.13;;;3.70;;
6378;SDS011;3222;48.858;10.128;2023-06-01T04:35:20;8.87;;;3.73;;
6378;SDS011;3222;48.858;10.128;2023-06-01T04:37:46;6.50;;;4.10;;
6378;SDS011;3222;48.858;10.128;2023-06-01T04:40:14;4.20;;;3.67;;
6378;SDS011;3222;48.858;10.128;2023-06-01T04:42:42;6.03;;;4.17;;
6378;SDS011;3222;48.858;10.128;2023-06-01T04:45:20;6.03;;;4.10;;
6378;SDS011;3222;48.858;10.128;2023-06-01T04:47:48;8.70;;;4.00;;
6378;SDS011;3222;48.858;10.128;2023-06-01T04:50:26;6.80;;;3.77;;
6378;SDS011;3222;48.858;10.128;2023-06-01T04:52:54;5.23;;;3.93;;
6378;SDS011;3222;48.858;10.128;2023-06-01T04:55:20;5.47;;;3.70;;
6378;SDS011;3222;48.858;10.128;2023-06-01T04:57:46;6.03;;;3.67;;
6378;SDS011;3222;48.858;10.128;2023-06-01T05:00:13;7.23;;;4.27;;
6378;SDS011;3222;48.858;10.128;2023-06-01T05:02:43;5.40;;;3.97;;
6378;SDS011;3222;48.858;10.128;2023-06-01T05:05:12;6.60;;;3.53;;
6378;SDS011;3222;48.858;10.128;2023-06-01T05:07:40;4.60;;;3.50;;
6378;SDS011;3222;48.858;10.128;2023-06-01T05:10:07;6.07;;;3.37;;
6378;SDS011;3222;48.858;10.128;2023-06-01T05:12:41;4.63;;;3.63;;
6378;SDS011;3222;48.858;10.128;2023-06-01T05:15:08;7.10;;;3.83;;
6378;SDS011;3222;48.858;10.128;2023-06-01T05:17:35;5.40;;;3.67;;
6378;SDS011;3222;48.858;10.128;2023-06-01T05:20:06;6.63;;;3.83;;
6378;SDS011;3222;48.858;10.128;2023-06-01T05:22:34;5.67;;;3.30;;
6378;SDS011;3222;48.858;10.128;2023-06-01T05:25:01;6.47;;;3.53;;
6378;SDS011;3222;48.858;10.128;2023-06-01T05:27:27;4.77;;;3.70;;
6378;SDS011;3222;48.858;10.128;2023-06-01T05:29:53;5.57;;;3.70;;
6378;SDS011;3222;48.858;10.128;2023-06-01T05:32:20;4.27;;;3.23;;
6378;SDS011;3222;48.858;10.128;2023-06-01T05:34:46;7.67;;;3.40;;
6378;SDS011;3222;48.858;10.128;2023-06-01T05:37:12;5.03;;;3.57;;
6378;SDS011;3222;48.858;10.128;2023-06-01T05:39:37;5.30;;;3.63;;
6378;SDS011;3222;48.858;10.128;2023-06-01T05:42:03;6.73;;;4.17;;
6378;SDS011;3222;48.858;10.128;2023-06-01T05:44:35;11.43;;;6.10;;
6378;SDS011;3222;48.858;10.128;2023-06-01T05:47:00;11.77;;;6.30;;
6378;SDS011;3222;48.858;10.128;2023-06-01T05:49:26;9.33;;;4.50;;
6378;SDS011;3222;48.858;10.128;2023-06-01T05:51:55;6.67;;;4.27;;
6378;SDS011;3222;48.858;10.128;2023-06-01T05:54:21;6.43;;;4.23;;
6378;SDS011;3222;48.858;10.128;2023-06-01T05:56:47;6.53;;;4.07;;
6378;SDS011;3222;48.858;10.128;2023-06-01T05:59:14;4.60;;;3.80;;
6378;SDS011;3222;48.858;10.128;2023-06-01T06:01:39;5.40;;;3.77;;
6378;SDS011;3222;48.858;10.128;2023-06-01T06:04:05;5.27;;;3.77;;
6378;SDS011;3222;48.858;10.128;2023-06-01T06:06:31;5.23;;;3.80;;
6378;SDS011;3222;48.858;10.128;2023-06-01T06:08:57;10.40;;;3.93;;
6378;SDS011;3222;48.858;10.128;2023-06-01T06:11:22;6.20;;;3.83;;
6378;SDS011;3222;48.858;10.128;2023-06-01T06:13:48;6.77;;;3.87;;
6378;SDS011;3222;48.858;10.128;2023-06-01T06:16:17;4.60;;;3.60;;
6378;SDS011;3222;48.858;10.128;2023-06-01T06:18:42;7.23;;;3.90;;
6378;SDS011;3222;48.858;10.128;2023-06-01T06:21:08;4.50;;;3.50;;
6378;SDS011;3222;48.858;10.128;2023-06-01T06:23:34;7.10;;;3.87;;
6378;SDS011;3222;48.858;10.128;2023-06-01T06:25:59;4.47;;;3.73;;
6378;SDS011;3222;48.858;10.128;2023-06-01T06:28:25;8.03;;;4.23;;
6378;SDS011;3222;48.858;10.128;2023-06-01T06:30:51;8.30;;;4.50;;
6378;SDS011;3222;48.858;10.128;2023-06-01T06:33:17;6.33;;;4.13;;
6378;SDS011;3222;48.858;10.128;2023-06-01T06:35:43;7.13;;;4.37;;
6378;SDS011;3222;48.858;10.128;2023-06-01T06:38:09;7.17;;;4.37;;
6378;SDS011;3222;48.858;10.128;2023-06-01T06:40:36;6.87;;;5.20;;
6378;SDS011;3222;48.858;10.128;2023-06-01T06:43:02;9.40;;;6.57;;
6378;SDS011;3222;48.858;10.128;2023-06-01T06:45:27;13.63;;;7.90;;
6378;SDS011;3222;48.858;10.128;2023-06-01T06:47:53;11.10;;;7.77;;
6378;SDS011;3222;48.858;10.128;2023-06-01T06:50:19;9.57;;;7.50;;
6378;SDS011;3222;48.858;10.128;2023-06-01T06:52:45;10.33;;;7.57;;
6378;SDS011;3222;48.858;10.128;2023-06-01T06:55:10;9.70;;;7.17;;
6378;SDS011;3222;48.858;10.128;2023-06-01T06:57:36;11.63;;;7.70;;
6378;SDS011;3222;48.858;10.128;2023-06-01T07:00:06;11.10;;;8.30;;
6378;SDS011;3222;48.858;10.128;2023-06-01T07:02:32;11.17;;;6.60;;
6378;SDS011;3222;48.858;10.128;2023-06-01T07:04:58;10.23;;;6.67;;
6378;SDS011;3222;48.858;10.128;2023-06-01T07:07:23;11.23;;;6.97;;
6378;SDS011;3222;48.858;10.128;2023-06-01T07:09:49;14.03;;;7.87;;
6378;SDS011;3222;48.858;10.128;2023-06-01T07:12:15;7.57;;;6.53;;
6378;SDS011;3222;48.858;10.128;2023-06-01T07:14:41;12.97;;;7.07;;
6378;SDS011;3222;48.858;10.128;2023-06-01T07:17:06;8.53;;;6.30;;
6378;SDS011;3222;48.858;10.128;2023-06-01T07:19:32;10.17;;;6.20;;
6378;SDS011;3222;48.858;10.128;2023-06-01T07:22:00;8.13;;;6.50;;
6378;SDS011;3222;48.858;10.128;2023-06-01T07:24:27;7.27;;;5.30;;
6378;SDS011;3222;48.858;10.128;2023-06-01T07:26:53;4.73;;;4.20;;
6378;SDS011;3222;48.858;10.128;2023-06-01T07:29:20;6.57;;;4.67;;
6378;SDS011;3222;48.858;10.128;2023-06-01T07:31:46;5.50;;;4.17;;
6378;SDS011;3222;48.858;10.128;2023-06-01T07:34:12;5.43;;;4.23;;
6378;SDS011;3222;48.858;10.128;2023-06-01T07:36:38;5.73;;;4.17;;
6378;SDS011;3222;48.858;10.128;2023-06-01T07:39:05;4.03;;;3.50;;
6378;SDS011;3222;48.858;10.128;2023-06-01T07:41:34;8.27;;;3.73;;
6378;SDS011;3222;48.858;10.128;2023-06-01T07:44:00;5.97;;;3.23;;
6378;SDS011;3222;48.858;10.128;2023-06-01T07:46:25;4.23;;;3.40;;
6378;SDS011;3222;48.858;10.128;2023-06-01T07:48:51;4.97;;;3.23;;
6378;SDS011;3222;48.858;10.128;2023-06-01T07:51:17;5.90;;;3.20;;
6378;SDS011;3222;48.858;10.128;2023-06-01T07:53:43;5.00;;;3.40;;
6378;SDS011;3222;48.858;10.128;2023-06-01T07:56:09;6.47;;;3.37;;
6378;SDS011;3222;48.858;10.128;2023-06-01T07:58:34;6.63;;;3.33;;
6378;SDS011;3222;48.858;10.128;2023-06-01T08:01:01;5.57;;;3.10;;
6378;SDS011;3222;48.858;10.128;2023-06-01T08:03:27;9.53;;;2.90;;
6378;SDS011;3222;48.858;10.128;2023-06-01T08:05:53;5.37;;;3.47;;
6378;SDS011;3222;48.858;10.128;2023-06-01T08:08:24;8.63;;;3.50;;
6378;SDS011;3222;48.858;10.128;2023-06-01T08:10:50;5.73;;;3.43;;
6378;SDS011;3222;48.858;10.128;2023-06-01T08:13:17;4.23;;;3.33;;
6378;SDS011;3222;48.858;10.128;2023-06-01T08:15:44;4.40;;;3.20;;
6378;SDS011;3222;48.858;10.128;2023-06-01T08:18:15;5.77;;;3.77;;
6378;SDS011;3222;48.858;10.128;2023-06-01T08:20:41;5.40;;;3.30;;
6378;SDS011;3222;48.858;10.128;2023-06-01T08:23:07;6.83;;;3.50;;
6378;SDS011;3222;48.858;10.128;2023-06-01T08:25:33;6.90;;;3.90;;
6378;SDS011;3222;48.858;10.128;2023-06-01T08:27:59;10.40;;;4.43;;
6378;SDS011;3222;48.858;10.128;2023-06-01T08:30:25;9.67;;;4.50;;
6378;SDS011;3222;48.858;10.128;2023-06-01T08:32:51;7.57;;;4.40;;
6378;SDS011;3222;48.858;10.128;2023-06-01T08:35:17;6.77;;;3.80;;
6378;SDS011;3222;48.858;10.128;2023-06-01T08:37:43;6.70;;;3.70;;
6378;SDS011;3222;48.858;10.128;2023-06-01T08:40:10;7.20;;;4.17;;
6378;SDS011;3222;48.858;10.128;2023-06-01T08:42:40;7.77;;;4.03;;
6378;SDS011;3222;48.858;10.128;2023-06-01T08:45:12;6.30;;;4.00;;
6378;SDS011;3222;48.858;10.128;2023-06-01T08:47:38;6.43;;;4.00;;
6378;SDS011;3222;48.858;10.128;2023-06-01T08:50:05;9.33;;;4.07;;
6378;SDS011;3222;48.858;10.128;2023-06-01T08:52:34;4.67;;;3.80;;
6378;SDS011;3222;48.858;10.128;2023-06-01T08:55:01;4.53;;;3.67;;
6378;SDS011;3222;48.858;10.128;2023-06-01T08:57:28;5.10;;;3.73;;
6378;SDS011;3222;48.858;10.128;2023-06-01T08:59:55;8.00;;;4.33;;
6378;SDS011;3222;48.858;10.128;2023-06-01T09:02:21;4.47;;;3.93;;
6378;SDS011;3222;48.858;10.128;2023-06-01T09:04:47;7.10;;;3.63;;
6378;SDS011;3222;48.858;10.128;2023-06-01T09:07:13;3.67;;;3.33;;
6378;SDS011;3222;48.858;10.128;2023-06-01T09:09:39;6.13;;;3.50;;
6378;SDS011;3222;48.858;10.128;2023-06-01T09:14:49;4.23;;;3.70;;
6378;SDS011;3222;48.858;10.128;2023-06-01T09:17:23;6.33;;;3.60;;
6378;SDS011;3222;48.858;10.128;2023-06-01T09:19:53;5.93;;;4.30;;
6378;SDS011;3222;48.858;10.128;2023-06-01T09:22:22;5.27;;;3.57;;
6378;SDS011;3222;48.858;10.128;2023-06-01T09:24:57;11.03;;;3.73;;
6378;SDS011;3222;48.858;10.128;2023-06-01T09:27:24;6.90;;;3.80;;
6378;SDS011;3222;48.858;10.128;2023-06-01T09:29:55;6.97;;;4.23;;
6378;SDS011;3222;48.858;10.128;2023-06-01T09:32:21;5.13;;;3.60;;
6378;SDS011;3222;48.858;10.128;2023-06-01T09:34:47;5.23;;;3.93;;
6378;SDS011;3222;48.858;10.128;2023-06-01T09:37:13;5.00;;;3.67;;
6378;SDS011;3222;48.858;10.128;2023-06-01T09:39:39;6.63;;;3.47;;
6378;SDS011;3222;48.858;10.128;2023-06-01T09:42:05;4.53;;;3.63;;
6378;SDS011;3222;48.858;10.128;2023-06-01T09:49:30;9.80;;;3.80;;
6378;SDS011;3222;48.858;10.128;2023-06-01T09:54:32;4.63;;;3.63;;
6378;SDS011;3222;48.858;10.128;2023-06-01T09:57:05;5.43;;;3.63;;
6378;SDS011;3222;48.858;10.128;2023-06-01T09:59:42;9.43;;;3.80;;
6378;SDS011;3222;48.858;10.128;2023-06-01T10:02:11;4.27;;;3.50;;
6378;SDS011;3222;48.858;10.128;2023-06-01T10:04:47;5.47;;;4.00;;
6378;SDS011;3222;48.858;10.128;2023-06-01T10:07:14;5.47;;;4.00;;
6378;SDS011;3222;48.858;10.128;2023-06-01T10:09:42;4.77;;;3.67;;
6378;SDS011;3222;48.858;10.128;2023-06-01T10:12:10;6.00;;;3.80;;
6378;SDS011;3222;48.858;10.128;2023-06-01T10:14:37;6.53;;;3.87;;
6378;SDS011;3222;48.858;10.128;2023-06-01T10:17:04;5.57;;;3.70;;
6378;SDS011;3222;48.858;10.128;2023-06-01T10:19:30;4.43;;;3.63;;
6378;SDS011;3222;48.858;10.128;2023-06-01T10:21:59;7.40;;;3.60;;
6378;SDS011;3222;48.858;10.128;2023-06-01T10:24:25;7.67;;;3.70;;
6378;SDS011;3222;48.858;10.128;2023-06-01T10:29:32;3.73;;;3.43;;
6378;SDS011;3222;48.858;10.128;2023-06-01T10:31:58;7.73;;;3.70;;
6378;SDS011;3222;48.858;10.128;2023-06-01T10:39:28;4.83;;;3.70;;
6378;SDS011;3222;48.858;10.128;2023-06-01T10:41:57;3.87;;;3.40;;
6378;SDS011;3222;48.858;10.128;2023-06-01T10:50:23;5.77;;;3.33;;
6378;SDS011;3222;48.858;10.128;2023-06-01T10:52:28;7.13;;;3.93;;
6378;SDS011;3222;48.858;10.128;2023-06-01T10:57:39;7.82;;;3.80;;
6378;SDS011;3222;48.858;10.128;2023-06-01T11:08:07;6.33;;;3.90;;
6378;SDS011;3222;48.858;10.128;2023-06-01T11:10:58;4.23;;;3.27;;
6378;SDS011;3222;48.858;10.128;2023-06-01T11:13:26;4.80;;;3.57;;
6378;SDS011;3222;48.858;10.128;2023-06-01T11:16:26;7.00;;;3.50;;
6378;SDS011;3222;48.858;10.128;2023-06-01T11:18:55;3.55;;;3.25;;
6378;SDS011;3222;48.858;10.128;2023-06-01T11:21:32;4.77;;;3.63;;
6378;SDS011;3222;48.858;10.128;2023-06-01T11:24:06;3.95;;;3.40;;
6378;SDS011;3222;48.858;10.128;2023-06-01T11:26:38;5.55;;;3.30;;
6378;SDS011;3222;48.858;10.128;2023-06-01T11:31:53;11.82;;;3.60;;
6378;SDS011;3222;48.858;10.128;2023-06-01T11:34:42;3.53;;;3.13;;
6378;SDS011;3222;48.858;10.128;2023-06-01T11:37:12;7.60;;;3.40;;
6378;SDS011;3222;48.858;10.128;2023-06-01T11:39:40;6.78;;;3.28;;
6378;SDS011;3222;48.858;10.128;2023-06-01T11:42:09;4.57;;;3.22;;
6378;SDS011;3222;48.858;10.128;2023-06-01T11:44:38;6.23;;;3.30;;
6378;SDS011;3222;48.858;10.128;2023-06-01T11:47:05;4.82;;;3.45;;
6378;SDS011;3222;48.858;10.128;2023-06-01T11:49:45;4.68;;;3.42;;
6378;SDS011;3222;48.858;10.128;2023-06-01T11:52:17;4.85;;;3.40;;
6378;SDS011;3222;48.858;10.128;2023-06-01T11:54:44;4.87;;;3.60;;
6378;SDS011;3222;48.858;10.128;2023-06-01T11:57:10;4.28;;;3.60;;
6378;SDS011;3222;48.858;10.128;2023-06-01T11:59:42;5.50;;;3.42;;
6378;SDS011;3222;48.858;10.128;2023-06-01T12:07:22;3.60;;;3.17;;
6378;SDS011;3222;48.858;10.128;2023-06-01T12:09:49;4.97;;;3.20;;
6378;SDS011;3222;48.858;10.128;2023-06-01T12:12:19;4.15;;;3.03;;
6378;SDS011;3222;48.858;10.128;2023-06-01T12:14:49;4.75;;;3.50;;
6378;SDS011;3222;48.858;10.128;2023-06-01T12:17:16;4.03;;;3.08;;
6378;SDS011;3222;48.858;10.128;2023-06-01T12:19:46;3.72;;;3.30;;
6378;SDS011;3222;48.858;10.128;2023-06-01T12:22:12;5.22;;;3.05;;
6378;SDS011;3222;48.858;10.128;2023-06-01T12:24:39;5.97;;;3.15;;
6378;SDS011;3222;48.858;10.128;2023-06-01T12:27:12;4.53;;;3.10;;
6378;SDS011;3222;48.858;10.128;2023-06-01T12:29:43;4.22;;;3.30;;
6378;SDS011;3222;48.858;10.128;2023-06-01T12:32:12;3.45;;;3.15;;
6378;SDS011;3222;48.858;10.128;2023-06-01T12:34:40;3.25;;;2.90;;
6378;SDS011;3222;48.858;10.128;2023-06-01T12:37:15;12.30;;;3.63;;
6378;SDS011;3222;48.858;10.128;2023-06-01T12:39:41;4.32;;;3.40;;
6378;SDS011;3222;48.858;10.128;2023-06-01T12:42:08;3.55;;;3.13;;
6378;SDS011;3222;48.858;10.128;2023-06-01T12:44:35;6.10;;;3.33;;
6378;SDS011;3222;48.858;10.128;2023-06-01T12:47:02;5.70;;;3.15;;
6378;SDS011;3222;48.858;10.128;2023-06-01T12:49:28;100.45;;;8.82;;
6378;SDS011;3222;48.858;10.128;2023-06-01T12:51:55;36.63;;;4.88;;
6378;SDS011;3222;48.858;10.128;2023-06-01T12:54:20;24.23;;;3.92;;
6378;SDS011;3222;48.858;10.128;2023-06-01T12:56:49;20.48;;;3.72;;
6378;SDS011;3222;48.858;10.128;2023-06-01T12:59:16;8.35;;;3.38;;
6378;SDS011;3222;48.858;10.128;2023-06-01T13:01:42;7.95;;;3.47;;
6378;SDS011;3222;48.858;10.128;2023-06-01T13:04:08;5.38;;;2.85;;
6378;SDS011;3222;48.858;10.128;2023-06-01T13:06:34;4.63;;;3.40;;
6378;SDS011;3222;48.858;10.128;2023-06-01T13:09:00;4.57;;;3.22;;
6378;SDS011;3222;48.858;10.128;2023-06-01T13:11:26;4.38;;;3.03;;
6378;SDS011;3222;48.858;10.128;2023-06-01T13:13:52;6.50;;;2.78;;
6378;SDS011;3222;48.858;10.128;2023-06-01T13:16:18;3.13;;;2.83;;
6378;SDS011;3222;48.858;10.128;2023-06-01T13:18:44;6.90;;;3.28;;
6378;SDS011;3222;48.858;10.128;2023-06-01T13:21:13;3.03;;;2.70;;
6378;SDS011;3222;48.858;10.128;2023-06-01T13:23:40;4.10;;;2.95;;
6378;SDS011;3222;48.858;10.128;2023-06-01T13:26:06;5.15;;;3.25;;
6378;SDS011;3222;48.858;10.128;2023-06-01T13:28:33;3.42;;;2.85;;
6378;SDS011;3222;48.858;10.128;2023-06-01T13:30:59;4.50;;;3.05;;
6378;SDS011;3222;48.858;10.128;2023-06-01T13:33:25;6.40;;;3.03;;
6378;SDS011;3222;48.858;10.128;2023-06-01T13:35:50;3.42;;;2.97;;
6378;SDS011;3222;48.858;10.128;2023-06-01T13:38:16;4.35;;;2.78;;
6378;SDS011;3222;48.858;10.128;2023-06-01T13:40:42;3.08;;;2.80;;
6378;SDS011;3222;48.858;10.128;2023-06-01T13:43:07;3.97;;;3.05;;
6378;SDS011;3222;48.858;10.128;2023-06-01T13:45:33;12.35;;;3.17;;
6378;SDS011;3222;48.858;10.128;2023-06-01T13:48:00;4.13;;;2.80;;
6378;SDS011;3222;48.858;10.128;2023-06-01T13:50:26;8.75;;;2.80;;
6378;SDS011;3222;48.858;10.128;2023-06-01T13:52:52;3.97;;;2.97;;
6378;SDS011;3222;48.858;10.128;2023-06-01T13:55:19;4.35;;;2.40;;
6378;SDS011;3222;48.858;10.128;2023-06-01T13:57:45;4.72;;;2.72;;
6378;SDS011;3222;48.858;10.128;2023-06-01T14:00:11;4.35;;;2.72;;
6378;SDS011;3222;48.858;10.128;2023-06-01T14:02:41;3.88;;;2.85;;
6378;SDS011;3222;48.858;10.128;2023-06-01T14:05:07;4.03;;;2.70;;
6378;SDS011;3222;48.858;10.128;2023-06-01T14:07:35;3.15;;;2.42;;
6378;SDS011;3222;48.858;10.128;2023-06-01T14:10:01;3.17;;;2.42;;
6378;SDS011;3222;48.858;10.128;2023-06-01T14:12:27;4.15;;;2.33;;
6378;SDS011;3222;48.858;10.128;2023-06-01T14:14:53;2.92;;;2.63;;
6378;SDS011;3222;48.858;10.128;2023-06-01T14:17:18;3.72;;;2.40;;
6378;SDS011;3222;48.858;10.128;2023-06-01T14:19:44;5.45;;;2.88;;
6378;SDS011;3222;48.858;10.128;2023-06-01T14:22:10;2.83;;;2.40;;
6378;SDS011;3222;48.858;10.128;2023-06-01T14:24:36;2.58;;;2.38;;
6378;SDS011;3222;48.858;10.128;2023-06-01T14:27:01;3.00;;;2.25;;
6378;SDS011;3222;48.858;10.128;2023-06-01T14:29:27;3.13;;;2.38;;
6378;SDS011;3222;48.858;10.128;2023-06-01T14:31:53;4.47;;;2.58;;
6378;SDS011;3222;48.858;10.128;2023-06-01T14:34:18;3.72;;;2.47;;
6378;SDS011;3222;48.858;10.128;2023-06-01T14:36:45;2.33;;;1.95;;
6378;SDS011;3222;48.858;10.128;2023-06-01T14:39:10;3.45;;;2.10;;
6378;SDS011;3222;48.858;10.128;2023-06-01T14:41:36;3.35;;;2.40;;
6378;SDS011;3222;48.858;10.128;2023-06-01T14:44:02;3.63;;;2.20;;
6378;SDS011;3222;48.858;10.128;2023-06-01T14:46:28;3.83;;;2.22;;
6378;SDS011;3222;48.858;10.128;2023-06-01T14:48:53;2.28;;;2.08;;
6378;SDS011;3222;48.858;10.128;2023-06-01T14:51:19;3.53;;;1.90;;
6378;SDS011;3222;48.858;10.128;2023-06-01T14:53:44;2.20;;;1.90;;
6378;SDS011;3222;48.858;10.128;2023-06-01T14:56:10;2.22;;;1.80;;
6378;SDS011;3222;48.858;10.128;2023-06-01T14:58:36;3.05;;;1.90;;
6378;SDS011;3222;48.858;10.128;2023-06-01T15:01:02;1.80;;;1.70;;
6378;SDS011;3222;48.858;10.128;2023-06-01T15:03:27;2.60;;;1.80;;
6378;SDS011;3222;48.858;10.128;2023-06-01T15:05:53;3.15;;;1.90;;
6378;SDS011;3222;48.858;10.128;2023-06-01T15:08:19;3.05;;;1.65;;
6378;SDS011;3222;48.858;10.128;2023-06-01T15:10:48;5.53;;;1.92;;
6378;SDS011;3222;48.858;10.128;2023-06-01T15:13:13;2.30;;;1.50;;
6378;SDS011;3222;48.858;10.128;2023-06-01T15:15:39;4.30;;;1.83;;
6378;SDS011;3222;48.858;10.128;2023-06-01T15:18:06;4.82;;;1.60;;
6378;SDS011;3222;48.858;10.128;2023-06-01T15:20:32;4.13;;;1.92;;
6378;SDS011;3222;48.858;10.128;2023-06-01T15:22:58;4.10;;;2.15;;
6378;SDS011;3222;48.858;10.128;2023-06-01T15:25:23;2.75;;;1.70;;
6378;SDS011;3222;48.858;10.128;2023-06-01T15:27:49;2.83;;;1.85;;
6378;SDS011;3222;48.858;10.128;2023-06-01T15:30:15;3.75;;;1.60;;
6378;SDS011;3222;48.858;10.128;2023-06-01T15:32:41;2.70;;;1.50;;
6378;SDS011;3222;48.858;10.128;2023-06-01T15:35:06;1.88;;;1.77;;
6378;SDS011;3222;48.858;10.128;2023-06-01T15:37:33;2.65;;;1.63;;
6378;SDS011;3222;48.858;10.128;2023-06-01T15:39:59;6.68;;;2.85;;
6378;SDS011;3222;48.858;10.128;2023-06-01T15:42:25;7.43;;;2.50;;
6378;SDS011;3222;48.858;10.128;2023-06-01T15:44:51;3.25;;;2.35;;
6378;SDS011;3222;48.858;10.128;2023-06-01T15:47:16;5.93;;;1.95;;
6378;SDS011;3222;48.858;10.128;2023-06-01T15:49:42;2.90;;;2.35;;
6378;SDS011;3222;48.858;10.128;2023-06-01T15:52:08;5.72;;;4.90;;
6378;SDS011;3222;48.858;10.128;2023-06-01T15:54:34;7.78;;;3.15;;
6378;SDS011;3222;48.858;10.128;2023-06-01T15:57:00;3.55;;;2.10;;
6378;SDS011;3222;48.858;10.128;2023-06-01T15:59:28;4.78;;;1.75;;